World Is Not Enough — 9HZH8 — position and weather

sailwx.info

Track history (hours):
 
Tides and Currents Weather Stations Pressure Air Temp Water Temp Dewpoint Dewpoint Depression Visibility Wind Speed Wind Dir Waves Ship Positions

World Is Not Enough

Last reported at 2015-Jul-04 13:34 UTC. Time now 2015-Jul-04 19:03 UTC.
Position N 42°26' E 018°33'.

Length 17 m.

Type: Pleasure craft. MMSI: 256636000.

Date/timePositionNaut miles runAvg speedWind from/ knotsBaromVisibWave heightAir tempDewpointWater temp
2015-Jul-04 13:34N 42°26' E 018°33'6 6.3
2015-Jul-04 12:34N 42°26' E 018°41'0 0.0
2015-Jul-04 11:33N 42°26' E 018°41'0 0.0
2015-Jul-04 10:34N 42°26' E 018°41'3 2.9
2015-Jul-04 09:34N 42°29' E 018°43'2 0.7
2015-Jul-04 07:10N 42°29' E 018°45'0 0.1
2015-Jul-04 06:33N 42°29' E 018°45'0 0.0
2015-Jul-04 05:34N 42°29' E 018°45'0 0.0
2015-Jul-04 04:33N 42°29' E 018°45'0 0.0
2015-Jul-04 03:34N 42°29' E 018°45'0 0.0
2015-Jul-04 02:33N 42°29' E 018°45'0 0.0
2015-Jul-04 01:34N 42°29' E 018°45'0 0.0
2015-Jul-04 00:34N 42°29' E 018°45'0 0.0
2015-Jul-03 23:33N 42°29' E 018°45'0 0.0
2015-Jul-03 22:33N 42°29' E 018°45'0 0.0
2015-Jul-03 21:34N 42°29' E 018°45'0 0.2
2015-Jul-03 20:34N 42°29' E 018°45'0 0.1
2015-Jul-03 19:33N 42°29' E 018°45'0 0.0
2015-Jul-03 18:34N 42°29' E 018°45'0 0.0
2015-Jul-03 17:34N 42°29' E 018°45'0 0.1
2015-Jul-03 16:34N 42°29' E 018°45'0 0.0
2015-Jul-03 15:33N 42°29' E 018°45'0 0.0
2015-Jul-03 14:33N 42°29' E 018°45'0 0.0
2015-Jul-03 13:34N 42°29' E 018°45'0 0.0
2015-Jul-03 12:34N 42°29' E 018°45'0 0.0
2015-Jul-03 11:33N 42°29' E 018°45'4 4.4
2015-Jul-03 10:34N 42°26' E 018°41'0 0.0
2015-Jul-03 09:33N 42°26' E 018°41'0 0.0
2015-Jul-03 08:34N 42°26' E 018°41'0 0.0
2015-Jul-03 07:27N 42°26' E 018°41'0 0.0
2015-Jul-03 06:34N 42°26' E 018°41'0 0.0
2015-Jul-03 05:34N 42°26' E 018°41'0 0.0
2015-Jul-03 04:34N 42°26' E 018°41'0 0.0
2015-Jul-03 03:33N 42°26' E 018°41'0 0.0
2015-Jul-03 02:34N 42°26' E 018°41'0 0.0
2015-Jul-03 01:34N 42°26' E 018°41'0 0.0
2015-Jul-03 00:34N 42°26' E 018°41'0 0.0
2015-Jul-02 23:33N 42°26' E 018°41'0 0.0
2015-Jul-02 22:34N 42°26' E 018°41'0 0.0
2015-Jul-02 21:33N 42°26' E 018°41'0 0.0
2015-Jul-02 20:34N 42°26' E 018°41'0 0.0
2015-Jul-02 19:33N 42°26' E 018°41'0 0.0
2015-Jul-02 18:33N 42°26' E 018°41'0 0.0
2015-Jul-02 17:34N 42°26' E 018°41'0 0.0
2015-Jul-02 16:34N 42°26' E 018°41'0 0.0
2015-Jul-02 15:33N 42°26' E 018°41'0 0.0
2015-Jul-02 14:34N 42°26' E 018°41'0 0.0
2015-Jul-02 13:34N 42°26' E 018°41'0 0.0
2015-Jul-02 12:34N 42°26' E 018°41'0 0.0
2015-Jul-02 11:34N 42°26' E 018°41'0 0.0
2015-Jul-02 10:33N 42°26' E 018°41'0 0.0
2015-Jul-02 09:34N 42°26' E 018°41'0 0.0
2015-Jul-02 08:34N 42°26' E 018°41'0 0.0
2015-Jul-02 07:34N 42°26' E 018°41'0 0.0
2015-Jul-02 06:34N 42°26' E 018°41'0 0.0
2015-Jul-02 05:34N 42°26' E 018°41'0 0.0
2015-Jul-02 04:33N 42°26' E 018°41'0 0.0
2015-Jul-02 03:34N 42°26' E 018°41'0 0.0
2015-Jul-02 02:33N 42°26' E 018°41'0 0.0
2015-Jul-02 01:33N 42°26' E 018°41'0 0.0
2015-Jul-02 00:34N 42°26' E 018°41'0 0.0
2015-Jul-01 23:34N 42°26' E 018°41'0 0.0
2015-Jul-01 22:33N 42°26' E 018°41'0 0.0
2015-Jul-01 21:34N 42°26' E 018°41'0 0.0
2015-Jul-01 20:34N 42°26' E 018°41'0 0.0
2015-Jul-01 19:33N 42°26' E 018°41'0 0.0
2015-Jul-01 18:33N 42°26' E 018°41'0 0.0
2015-Jul-01 17:34N 42°26' E 018°41'0 0.0
2015-Jul-01 16:33N 42°26' E 018°41'0 0.0
2015-Jul-01 15:34N 42°26' E 018°41'0 0.2
2015-Jul-01 14:34N 42°26' E 018°41'3 3.0
2015-Jul-01 13:33N 42°26' E 018°37'  
Track history (hours):
 
Tides and Currents Weather Stations Pressure Air Temp Water Temp Dewpoint Dewpoint Depression Visibility Wind Speed Wind Dir Waves Ship Positions

World Is Not Enough

Last reported at 2015-Jul-04 13:34 UTC. Time now 2015-Jul-04 19:03 UTC.
Position N 42°26' E 018°33'.

Length 17 m.

Type: Pleasure craft. MMSI: 256636000.

Date/timePositionNaut miles runAvg speedWind from/ knotsBaromVisibWave heightAir tempDewpointWater temp
2015-Jul-04 13:34N 42°26' E 018°33'6 6.3
2015-Jul-04 12:34N 42°26' E 018°41'0 0.0
2015-Jul-04 11:33N 42°26' E 018°41'0 0.0
2015-Jul-04 10:34N 42°26' E 018°41'3 2.9
2015-Jul-04 09:34N 42°29' E 018°43'2 0.7
2015-Jul-04 07:10N 42°29' E 018°45'0 0.1
2015-Jul-04 06:33N 42°29' E 018°45'0 0.0
2015-Jul-04 05:34N 42°29' E 018°45'0 0.0
2015-Jul-04 04:33N 42°29' E 018°45'0 0.0
2015-Jul-04 03:34N 42°29' E 018°45'0 0.0
2015-Jul-04 02:33N 42°29' E 018°45'0 0.0
2015-Jul-04 01:34N 42°29' E 018°45'0 0.0
2015-Jul-04 00:34N 42°29' E 018°45'0 0.0
2015-Jul-03 23:33N 42°29' E 018°45'0 0.0
2015-Jul-03 22:33N 42°29' E 018°45'0 0.0
2015-Jul-03 21:34N 42°29' E 018°45'0 0.2
2015-Jul-03 20:34N 42°29' E 018°45'0 0.1
2015-Jul-03 19:33N 42°29' E 018°45'0 0.0
2015-Jul-03 18:34N 42°29' E 018°45'0 0.0
2015-Jul-03 17:34N 42°29' E 018°45'0 0.1
2015-Jul-03 16:34N 42°29' E 018°45'0 0.0
2015-Jul-03 15:33N 42°29' E 018°45'0 0.0
2015-Jul-03 14:33N 42°29' E 018°45'0 0.0
2015-Jul-03 13:34N 42°29' E 018°45'0 0.0
2015-Jul-03 12:34N 42°29' E 018°45'0 0.0
2015-Jul-03 11:33N 42°29' E 018°45'4 4.4
2015-Jul-03 10:34N 42°26' E 018°41'0 0.0
2015-Jul-03 09:33N 42°26' E 018°41'0 0.0
2015-Jul-03 08:34N 42°26' E 018°41'0 0.0
2015-Jul-03 07:27N 42°26' E 018°41'0 0.0
2015-Jul-03 06:34N 42°26' E 018°41'0 0.0
2015-Jul-03 05:34N 42°26' E 018°41'0 0.0
2015-Jul-03 04:34N 42°26' E 018°41'0 0.0
2015-Jul-03 03:33N 42°26' E 018°41'0 0.0
2015-Jul-03 02:34N 42°26' E 018°41'0 0.0
2015-Jul-03 01:34N 42°26' E 018°41'0 0.0
2015-Jul-03 00:34N 42°26' E 018°41'0 0.0
2015-Jul-02 23:33N 42°26' E 018°41'0 0.0
2015-Jul-02 22:34N 42°26' E 018°41'0 0.0
2015-Jul-02 21:33N 42°26' E 018°41'0 0.0
2015-Jul-02 20:34N 42°26' E 018°41'0 0.0
2015-Jul-02 19:33N 42°26' E 018°41'0 0.0
2015-Jul-02 18:33N 42°26' E 018°41'0 0.0
2015-Jul-02 17:34N 42°26' E 018°41'0 0.0
2015-Jul-02 16:34N 42°26' E 018°41'0 0.0
2015-Jul-02 15:33N 42°26' E 018°41'0 0.0
2015-Jul-02 14:34N 42°26' E 018°41'0 0.0
2015-Jul-02 13:34N 42°26' E 018°41'0 0.0
2015-Jul-02 12:34N 42°26' E 018°41'0 0.0
2015-Jul-02 11:34N 42°26' E 018°41'0 0.0
2015-Jul-02 10:33N 42°26' E 018°41'0 0.0
2015-Jul-02 09:34N 42°26' E 018°41'0 0.0
2015-Jul-02 08:34N 42°26' E 018°41'0 0.0
2015-Jul-02 07:34N 42°26' E 018°41'0 0.0
2015-Jul-02 06:34N 42°26' E 018°41'0 0.0
2015-Jul-02 05:34N 42°26' E 018°41'0 0.0
2015-Jul-02 04:33N 42°26' E 018°41'0 0.0
2015-Jul-02 03:34N 42°26' E 018°41'0 0.0
2015-Jul-02 02:33N 42°26' E 018°41'0 0.0
2015-Jul-02 01:33N 42°26' E 018°41'0 0.0
2015-Jul-02 00:34N 42°26' E 018°41'0 0.0
2015-Jul-01 23:34N 42°26' E 018°41'0 0.0
2015-Jul-01 22:33N 42°26' E 018°41'0 0.0
2015-Jul-01 21:34N 42°26' E 018°41'0 0.0
2015-Jul-01 20:34N 42°26' E 018°41'0 0.0
2015-Jul-01 19:33N 42°26' E 018°41'0 0.0
2015-Jul-01 18:33N 42°26' E 018°41'0 0.0
2015-Jul-01 17:34N 42°26' E 018°41'0 0.0
2015-Jul-01 16:33N 42°26' E 018°41'0 0.0
2015-Jul-01 15:34N 42°26' E 018°41'0 0.2
2015-Jul-01 14:34N 42°26' E 018°41'3 3.0
2015-Jul-01 13:33N 42°26' E 018°37'  

Dump ship's entire track history